sensor_id;sensor_type;location;lat;lon;timestamp;temperature;humidity
2855;DHT22;1435;49.472;10.940;2023-04-01T00:01:44;10.20;99.90
2855;DHT22;1435;49.472;10.940;2023-04-01T00:06:47;10.20;99.90
2855;DHT22;1435;49.472;10.940;2023-04-01T00:11:49;10.30;99.90
2855;DHT22;1435;49.472;10.940;2023-04-01T00:16:50;10.30;99.90
2855;DHT22;1435;49.472;10.940;2023-04-01T00:21:54;10.30;99.90
2855;DHT22;1435;49.472;10.940;2023-04-01T00:26:56;10.30;99.90
2855;DHT22;1435;49.472;10.940;2023-04-01T00:31:58;10.30;99.90
2855;DHT22;1435;49.472;10.940;2023-04-01T00:37:01;10.30;99.90
2855;DHT22;1435;49.472;10.940;2023-04-01T00:42:03;10.30;99.90
2855;DHT22;1435;49.472;10.940;2023-04-01T00:47:05;10.40;99.90
2855;DHT22;1435;49.472;10.940;2023-04-01T00:52:12;10.30;99.90
2855;DHT22;1435;49.472;10.940;2023-04-01T00:57:18;10.40;99.90
2855;DHT22;1435;49.472;10.940;2023-04-01T01:02:22;10.30;99.90
2855;DHT22;1435;49.472;10.940;2023-04-01T01:07:30;10.30;99.90
2855;DHT22;1435;49.472;10.940;2023-04-01T01:12:40;10.40;99.90
2855;DHT22;1435;49.472;10.940;2023-04-01T01:17:51;10.30;99.90
2855;DHT22;1435;49.472;10.940;2023-04-01T01:23:23;10.30;99.90
2855;DHT22;1435;49.472;10.940;2023-04-01T01:28:38;10.30;99.90
2855;DHT22;1435;49.472;10.940;2023-04-01T01:33:58;10.40;99.90
2855;DHT22;1435;49.472;10.940;2023-04-01T01:39:06;10.40;99.90
2855;DHT22;1435;49.472;10.940;2023-04-01T01:44:11;10.40;99.90
2855;DHT22;1435;49.472;10.940;2023-04-01T01:49:14;10.40;99.90
2855;DHT22;1435;49.472;10.940;2023-04-01T01:54:18;10.30;99.90
2855;DHT22;1435;49.472;10.940;2023-04-01T01:59:21;10.40;99.90
2855;DHT22;1435;49.472;10.940;2023-04-01T02:04:25;10.30;99.90
2855;DHT22;1435;49.472;10.940;2023-04-01T02:09:28;10.40;99.90
2855;DHT22;1435;49.472;10.940;2023-04-01T02:14:37;10.40;99.90
2855;DHT22;1435;49.472;10.940;2023-04-01T02:19:46;10.50;99.90
2855;DHT22;1435;49.472;10.940;2023-04-01T02:24:50;10.60;99.90
2855;DHT22;1435;49.472;10.940;2023-04-01T02:29:53;10.70;99.90
2855;DHT22;1435;49.472;10.940;2023-04-01T02:34:55;10.70;99.90
2855;DHT22;1435;49.472;10.940;2023-04-01T02:40:01;10.50;99.90
2855;DHT22;1435;49.472;10.940;2023-04-01T02:45:04;10.50;99.90
2855;DHT22;1435;49.472;10.940;2023-04-01T02:50:07;10.40;99.90
2855;DHT22;1435;49.472;10.940;2023-04-01T02:55:10;10.50;99.90
2855;DHT22;1435;49.472;10.940;2023-04-01T03:00:13;10.50;99.90
2855;DHT22;1435;49.472;10.940;2023-04-01T03:05:15;10.60;99.90
2855;DHT22;1435;49.472;10.940;2023-04-01T03:10:18;10.60;99.90
2855;DHT22;1435;49.472;10.940;2023-04-01T03:15:20;10.70;99.90
2855;DHT22;1435;49.472;10.940;2023-04-01T03:20:22;10.70;99.90
2855;DHT22;1435;49.472;10.940;2023-04-01T03:25:25;10.60;99.90
2855;DHT22;1435;49.472;10.940;2023-04-01T03:30:27;10.70;99.90
2855;DHT22;1435;49.472;10.940;2023-04-01T03:35:30;10.70;99.90
2855;DHT22;1435;49.472;10.940;2023-04-01T03:40:33;10.60;99.90
2855;DHT22;1435;49.472;10.940;2023-04-01T03:45:43;10.60;99.90
2855;DHT22;1435;49.472;10.940;2023-04-01T03:50:48;10.70;99.90
2855;DHT22;1435;49.472;10.940;2023-04-01T03:55:52;10.80;99.90
2855;DHT22;1435;49.472;10.940;2023-04-01T04:00:54;10.70;99.90
2855;DHT22;1435;49.472;10.940;2023-04-01T04:05:56;10.60;99.90
2855;DHT22;1435;49.472;10.940;2023-04-01T04:10:59;10.50;99.90
2855;DHT22;1435;49.472;10.940;2023-04-01T04:16:01;10.50;99.90
2855;DHT22;1435;49.472;10.940;2023-04-01T04:21:03;10.40;99.90
2855;DHT22;1435;49.472;10.940;2023-04-01T04:26:08;10.40;99.90
2855;DHT22;1435;49.472;10.940;2023-04-01T04:31:10;10.40;99.90
2855;DHT22;1435;49.472;10.940;2023-04-01T04:36:11;10.40;99.90
2855;DHT22;1435;49.472;10.940;2023-04-01T04:41:16;10.40;99.90
2855;DHT22;1435;49.472;10.940;2023-04-01T04:46:19;10.30;99.90
2855;DHT22;1435;49.472;10.940;2023-04-01T04:51:21;10.30;99.90
2855;DHT22;1435;49.472;10.940;2023-04-01T04:56:24;10.30;99.90
2855;DHT22;1435;49.472;10.940;2023-04-01T05:01:26;10.40;99.90
2855;DHT22;1435;49.472;10.940;2023-04-01T05:06:28;10.40;99.90
2855;DHT22;1435;49.472;10.940;2023-04-01T05:11:33;10.40;99.90
2855;DHT22;1435;49.472;10.940;2023-04-01T05:16:35;10.40;99.90
2855;DHT22;1435;49.472;10.940;2023-04-01T05:21:37;10.50;99.90
2855;DHT22;1435;49.472;10.940;2023-04-01T05:26:40;10.30;99.90
2855;DHT22;1435;49.472;10.940;2023-04-01T05:31:41;10.40;99.90
2855;DHT22;1435;49.472;10.940;2023-04-01T05:36:43;10.50;99.90
2855;DHT22;1435;49.472;10.940;2023-04-01T05:41:47;10.30;99.90
2855;DHT22;1435;49.472;10.940;2023-04-01T05:46:48;10.30;99.90
2855;DHT22;1435;49.472;10.940;2023-04-01T05:51:50;10.40;99.90
2855;DHT22;1435;49.472;10.940;2023-04-01T05:56:53;10.30;99.90
2855;DHT22;1435;49.472;10.940;2023-04-01T06:01:55;10.40;99.90
2855;DHT22;1435;49.472;10.940;2023-04-01T06:06:57;10.30;99.90
2855;DHT22;1435;49.472;10.940;2023-04-01T06:12:32;10.20;99.90
2855;DHT22;1435;49.472;10.940;2023-04-01T06:17:48;10.20;99.90
2855;DHT22;1435;49.472;10.940;2023-04-01T06:23:05;10.20;99.90
2855;DHT22;1435;49.472;10.940;2023-04-01T06:29:05;10.30;99.90
2855;DHT22;1435;49.472;10.940;2023-04-01T06:39:58;10.20;99.90
2855;DHT22;1435;49.472;10.940;2023-04-01T06:45:16;10.30;99.90
2855;DHT22;1435;49.472;10.940;2023-04-01T06:50:26;10.30;99.90
2855;DHT22;1435;49.472;10.940;2023-04-01T06:55:36;10.40;99.90
2855;DHT22;1435;49.472;10.940;2023-04-01T07:00:44;10.50;99.90
2855;DHT22;1435;49.472;10.940;2023-04-01T07:05:48;10.50;99.90
2855;DHT22;1435;49.472;10.940;2023-04-01T07:10:54;10.60;99.90
2855;DHT22;1435;49.472;10.940;2023-04-01T07:16:12;10.60;99.90
2855;DHT22;1435;49.472;10.940;2023-04-01T07:21:22;10.40;99.90
2855;DHT22;1435;49.472;10.940;2023-04-01T07:26:25;10.50;99.90
2855;DHT22;1435;49.472;10.940;2023-04-01T07:31:43;10.50;99.90
2855;DHT22;1435;49.472;10.940;2023-04-01T07:36:53;10.40;99.90
2855;DHT22;1435;49.472;10.940;2023-04-01T07:42:01;10.50;99.90
2855;DHT22;1435;49.472;10.940;2023-04-01T07:47:19;10.50;99.90
2855;DHT22;1435;49.472;10.940;2023-04-01T07:52:28;10.70;99.90
2855;DHT22;1435;49.472;10.940;2023-04-01T07:57:35;10.70;99.90
2855;DHT22;1435;49.472;10.940;2023-04-01T08:02:53;10.80;99.90
2855;DHT22;1435;49.472;10.940;2023-04-01T08:08:04;10.90;99.90
2855;DHT22;1435;49.472;10.940;2023-04-01T08:13:15;11.00;99.90
2855;DHT22;1435;49.472;10.940;2023-04-01T08:18:33;11.00;99.90
2855;DHT22;1435;49.472;10.940;2023-04-01T08:23:43;11.00;99.90
2855;DHT22;1435;49.472;10.940;2023-04-01T08:28:51;11.10;99.90
2855;DHT22;1435;49.472;10.940;2023-04-01T08:33:55;11.20;99.90
2855;DHT22;1435;49.472;10.940;2023-04-01T08:39:02;11.30;99.90
2855;DHT22;1435;49.472;10.940;2023-04-01T08:44:31;11.40;99.90
2855;DHT22;1435;49.472;10.940;2023-04-01T08:50:07;11.50;99.90
2855;DHT22;1435;49.472;10.940;2023-04-01T08:55:38;11.40;99.90
2855;DHT22;1435;49.472;10.940;2023-04-01T09:00:45;11.50;99.90
2855;DHT22;1435;49.472;10.940;2023-04-01T09:06:12;11.50;99.90
2855;DHT22;1435;49.472;10.940;2023-04-01T09:11:28;11.60;99.90
2855;DHT22;1435;49.472;10.940;2023-04-01T09:16:44;11.50;99.90
2855;DHT22;1435;49.472;10.940;2023-04-01T09:22:32;11.50;99.90
2855;DHT22;1435;49.472;10.940;2023-04-01T09:27:43;11.50;99.90
2855;DHT22;1435;49.472;10.940;2023-04-01T09:33:03;11.40;99.90
2855;DHT22;1435;49.472;10.940;2023-04-01T09:38:21;11.30;99.90
2855;DHT22;1435;49.472;10.940;2023-04-01T09:43:26;11.50;99.90
2855;DHT22;1435;49.472;10.940;2023-04-01T09:48:44;11.40;99.90
2855;DHT22;1435;49.472;10.940;2023-04-01T09:54:01;11.20;99.90
2855;DHT22;1435;49.472;10.940;2023-04-01T09:59:38;11.30;99.90
2855;DHT22;1435;49.472;10.940;2023-04-01T10:10:55;11.20;99.90
2855;DHT22;1435;49.472;10.940;2023-04-01T10:32:45;11.20;99.90
2855;DHT22;1435;49.472;10.940;2023-04-01T10:49:37;11.40;99.90
2855;DHT22;1435;49.472;10.940;2023-04-01T10:54:46;11.20;99.90
2855;DHT22;1435;49.472;10.940;2023-04-01T11:00:20;11.30;99.90
2855;DHT22;1435;49.472;10.940;2023-04-01T11:05:52;11.10;99.90
2855;DHT22;1435;49.472;10.940;2023-04-01T11:11:44;11.20;99.90
2855;DHT22;1435;49.472;10.940;2023-04-01T11:22:41;11.50;99.90
2855;DHT22;1435;49.472;10.940;2023-04-01T11:33:31;11.10;99.90
2855;DHT22;1435;49.472;10.940;2023-04-01T11:44:17;10.70;99.90
2855;DHT22;1435;49.472;10.940;2023-04-01T11:49:33;10.80;99.90
2855;DHT22;1435;49.472;10.940;2023-04-01T11:54:54;10.70;99.90
2855;DHT22;1435;49.472;10.940;2023-04-01T12:00:19;10.90;99.90
2855;DHT22;1435;49.472;10.940;2023-04-01T12:05:38;10.80;99.90
2855;DHT22;1435;49.472;10.940;2023-04-01T12:10:46;10.90;99.90
2855;DHT22;1435;49.472;10.940;2023-04-01T12:16:15;11.00;99.90
2855;DHT22;1435;49.472;10.940;2023-04-01T12:21:25;11.10;99.90
2855;DHT22;1435;49.472;10.940;2023-04-01T12:26:52;11.10;99.90
2855;DHT22;1435;49.472;10.940;2023-04-01T12:31:59;11.20;99.90
2855;DHT22;1435;49.472;10.940;2023-04-01T12:37:12;10.90;99.90
2855;DHT22;1435;49.472;10.940;2023-04-01T12:42:37;11.10;99.90
2855;DHT22;1435;49.472;10.940;2023-04-01T12:47:55;11.10;99.90
2855;DHT22;1435;49.472;10.940;2023-04-01T12:53:10;11.30;99.90
2855;DHT22;1435;49.472;10.940;2023-04-01T13:09:22;11.30;99.90
2855;DHT22;1435;49.472;10.940;2023-04-01T13:20:00;11.00;99.90
2855;DHT22;1435;49.472;10.940;2023-04-01T13:25:10;11.10;99.90
2855;DHT22;1435;49.472;10.940;2023-04-01T13:30:24;11.00;99.90
2855;DHT22;1435;49.472;10.940;2023-04-01T13:35:36;11.10;99.90
2855;DHT22;1435;49.472;10.940;2023-04-01T13:40:47;11.20;99.90
2855;DHT22;1435;49.472;10.940;2023-04-01T13:46:19;11.20;99.90
2855;DHT22;1435;49.472;10.940;2023-04-01T13:51:38;11.10;99.90
2855;DHT22;1435;49.472;10.940;2023-04-01T13:56:50;11.10;99.90
2855;DHT22;1435;49.472;10.940;2023-04-01T14:02:07;11.20;99.90
2855;DHT22;1435;49.472;10.940;2023-04-01T14:07:22;11.30;99.90
2855;DHT22;1435;49.472;10.940;2023-04-01T14:12:32;11.10;99.90
2855;DHT22;1435;49.472;10.940;2023-04-01T14:17:47;11.10;99.90
2855;DHT22;1435;49.472;10.940;2023-04-01T14:23:02;11.20;99.90
2855;DHT22;1435;49.472;10.940;2023-04-01T14:28:15;11.10;99.90
2855;DHT22;1435;49.472;10.940;2023-04-01T14:33:29;11.20;99.90
2855;DHT22;1435;49.472;10.940;2023-04-01T14:38:42;11.20;99.90
2855;DHT22;1435;49.472;10.940;2023-04-01T14:49:17;11.20;99.90
2855;DHT22;1435;49.472;10.940;2023-04-01T14:54:30;11.20;99.90
2855;DHT22;1435;49.472;10.940;2023-04-01T14:59:39;11.20;99.90
2855;DHT22;1435;49.472;10.940;2023-04-01T15:04:49;11.20;99.90
2855;DHT22;1435;49.472;10.940;2023-04-01T15:09:57;11.00;99.90
2855;DHT22;1435;49.472;10.940;2023-04-01T15:15:17;11.10;99.90
2855;DHT22;1435;49.472;10.940;2023-04-01T15:20:33;11.00;99.90
2855;DHT22;1435;49.472;10.940;2023-04-01T15:25:45;11.20;99.90
2855;DHT22;1435;49.472;10.940;2023-04-01T15:30:56;11.00;99.90
2855;DHT22;1435;49.472;10.940;2023-04-01T15:36:04;10.90;99.90
2855;DHT22;1435;49.472;10.940;2023-04-01T15:41:14;11.10;99.90
2855;DHT22;1435;49.472;10.940;2023-04-01T15:46:41;11.10;99.90
2855;DHT22;1435;49.472;10.940;2023-04-01T15:51:53;10.90;99.90
2855;DHT22;1435;49.472;10.940;2023-04-01T15:57:08;11.00;99.90
2855;DHT22;1435;49.472;10.940;2023-04-01T16:02:19;10.90;99.90
2855;DHT22;1435;49.472;10.940;2023-04-01T16:07:37;10.80;99.90
2855;DHT22;1435;49.472;10.940;2023-04-01T16:12:53;11.00;99.90
2855;DHT22;1435;49.472;10.940;2023-04-01T16:18:30;11.00;99.90
2855;DHT22;1435;49.472;10.940;2023-04-01T16:23:37;10.80;99.90
2855;DHT22;1435;49.472;10.940;2023-04-01T16:28:48;10.80;99.90
2855;DHT22;1435;49.472;10.940;2023-04-01T16:34:00;10.90;99.90
2855;DHT22;1435;49.472;10.940;2023-04-01T16:39:28;10.80;99.90
2855;DHT22;1435;49.472;10.940;2023-04-01T16:44:46;10.80;99.90
2855;DHT22;1435;49.472;10.940;2023-04-01T16:49:56;10.90;99.90
2855;DHT22;1435;49.472;10.940;2023-04-01T16:55:02;11.00;99.90
2855;DHT22;1435;49.472;10.940;2023-04-01T17:00:16;10.80;99.90
2855;DHT22;1435;49.472;10.940;2023-04-01T17:05:39;10.80;99.90
2855;DHT22;1435;49.472;10.940;2023-04-01T17:10:50;10.80;99.90
2855;DHT22;1435;49.472;10.940;2023-04-01T17:16:01;10.90;99.90
2855;DHT22;1435;49.472;10.940;2023-04-01T17:21:10;10.90;99.90
2855;DHT22;1435;49.472;10.940;2023-04-01T17:26:24;10.90;99.90
2855;DHT22;1435;49.472;10.940;2023-04-01T17:31:45;10.80;99.90
2855;DHT22;1435;49.472;10.940;2023-04-01T17:36:59;10.80;99.90
2855;DHT22;1435;49.472;10.940;2023-04-01T17:42:06;10.80;99.90
2855;DHT22;1435;49.472;10.940;2023-04-01T17:47:23;10.80;99.90
2855;DHT22;1435;49.472;10.940;2023-04-01T17:52:32;10.80;99.90
2855;DHT22;1435;49.472;10.940;2023-04-01T17:57:45;10.80;99.90
2855;DHT22;1435;49.472;10.940;2023-04-01T18:02:54;10.70;99.90
2855;DHT22;1435;49.472;10.940;2023-04-01T18:08:17;10.80;99.90
2855;DHT22;1435;49.472;10.940;2023-04-01T18:13:47;10.80;99.90
2855;DHT22;1435;49.472;10.940;2023-04-01T18:18:59;10.80;99.90
2855;DHT22;1435;49.472;10.940;2023-04-01T18:24:13;10.60;99.90
2855;DHT22;1435;49.472;10.940;2023-04-01T18:29:31;10.70;99.90
2855;DHT22;1435;49.472;10.940;2023-04-01T18:34:43;10.80;99.90
2855;DHT22;1435;49.472;10.940;2023-04-01T18:39:54;10.70;99.90
2855;DHT22;1435;49.472;10.940;2023-04-01T18:45:02;10.70;99.90
2855;DHT22;1435;49.472;10.940;2023-04-01T18:50:18;10.70;99.90
2855;DHT22;1435;49.472;10.940;2023-04-01T18:55:34;10.70;99.90
2855;DHT22;1435;49.472;10.940;2023-04-01T19:00:42;10.80;99.90
2855;DHT22;1435;49.472;10.940;2023-04-01T19:05:47;10.90;99.90
2855;DHT22;1435;49.472;10.940;2023-04-01T19:11:00;10.80;99.90
2855;DHT22;1435;49.472;10.940;2023-04-01T19:16:13;10.90;99.90
2855;DHT22;1435;49.472;10.940;2023-04-01T19:21:20;10.80;99.90
2855;DHT22;1435;49.472;10.940;2023-04-01T19:26:27;10.90;99.90
2855;DHT22;1435;49.472;10.940;2023-04-01T19:31:50;10.60;99.90
2855;DHT22;1435;49.472;10.940;2023-04-01T19:36:56;10.70;99.90
2855;DHT22;1435;49.472;10.940;2023-04-01T19:42:05;10.60;99.90
2855;DHT22;1435;49.472;10.940;2023-04-01T19:47:17;10.60;99.90
2855;DHT22;1435;49.472;10.940;2023-04-01T19:52:26;10.60;99.90
2855;DHT22;1435;49.472;10.940;2023-04-01T19:57:36;10.70;99.90
2855;DHT22;1435;49.472;10.940;2023-04-01T20:02:56;10.70;99.90
2855;DHT22;1435;49.472;10.940;2023-04-01T20:08:07;10.70;99.90
2855;DHT22;1435;49.472;10.940;2023-04-01T20:13:20;10.80;99.90
2855;DHT22;1435;49.472;10.940;2023-04-01T20:18:25;10.60;99.90
2855;DHT22;1435;49.472;10.940;2023-04-01T20:23:38;10.70;99.90
2855;DHT22;1435;49.472;10.940;2023-04-01T20:28:56;10.60;99.90
2855;DHT22;1435;49.472;10.940;2023-04-01T20:34:31;10.50;99.90
2855;DHT22;1435;49.472;10.940;2023-04-01T20:39:57;10.40;99.90
2855;DHT22;1435;49.472;10.940;2023-04-01T20:45:19;10.50;99.90
2855;DHT22;1435;49.472;10.940;2023-04-01T20:50:28;10.40;99.90
2855;DHT22;1435;49.472;10.940;2023-04-01T21:01:13;10.50;99.90
2855;DHT22;1435;49.472;10.940;2023-04-01T21:06:38;10.50;99.90
2855;DHT22;1435;49.472;10.940;2023-04-01T21:11:50;10.60;99.90
2855;DHT22;1435;49.472;10.940;2023-04-01T21:17:00;10.70;99.90
2855;DHT22;1435;49.472;10.940;2023-04-01T21:33:20;10.70;99.90
2855;DHT22;1435;49.472;10.940;2023-04-01T21:38:38;10.80;99.90
2855;DHT22;1435;49.472;10.940;2023-04-01T21:44:06;10.70;99.90
2855;DHT22;1435;49.472;10.940;2023-04-01T21:49:43;10.80;99.90
2855;DHT22;1435;49.472;10.940;2023-04-01T22:00:24;10.60;99.90
2855;DHT22;1435;49.472;10.940;2023-04-01T22:05:31;10.50;99.90
2855;DHT22;1435;49.472;10.940;2023-04-01T22:10:41;10.40;99.90
2855;DHT22;1435;49.472;10.940;2023-04-01T22:15:54;10.50;99.90
2855;DHT22;1435;49.472;10.940;2023-04-01T22:21:07;10.60;99.90
2855;DHT22;1435;49.472;10.940;2023-04-01T22:26:17;10.70;99.90
2855;DHT22;1435;49.472;10.940;2023-04-01T22:31:27;10.50;99.90
2855;DHT22;1435;49.472;10.940;2023-04-01T22:36:37;10.50;99.90
2855;DHT22;1435;49.472;10.940;2023-04-01T22:41:51;10.50;99.90
2855;DHT22;1435;49.472;10.940;2023-04-01T22:47:02;10.40;99.90
2855;DHT22;1435;49.472;10.940;2023-04-01T22:52:16;10.40;99.90
2855;DHT22;1435;49.472;10.940;2023-04-01T22:57:38;10.30;99.90
2855;DHT22;1435;49.472;10.940;2023-04-01T23:02:45;10.40;99.90
2855;DHT22;1435;49.472;10.940;2023-04-01T23:07:56;10.50;99.90
2855;DHT22;1435;49.472;10.940;2023-04-01T23:13:02;10.30;99.90
2855;DHT22;1435;49.472;10.940;2023-04-01T23:18:18;10.30;99.90
2855;DHT22;1435;49.472;10.940;2023-04-01T23:23:30;10.40;99.90
2855;DHT22;1435;49.472;10.940;2023-04-01T23:28:44;10.50;99.90
2855;DHT22;1435;49.472;10.940;2023-04-01T23:33:53;10.30;99.90
2855;DHT22;1435;49.472;10.940;2023-04-01T23:39:02;10.30;99.90
2855;DHT22;1435;49.472;10.940;2023-04-01T23:44:08;10.40;99.90
2855;DHT22;1435;49.472;10.940;2023-04-01T23:49:13;10.50;99.90
2855;DHT22;1435;49.472;10.940;2023-04-01T23:54:23;10.30;99.90
2855;DHT22;1435;49.472;10.940;2023-04-01T23:59:28;10.40;99.90
